Time;durP1;ratioP1;P1;durP2;ratioP2;P2;SDS_P1;SDS_P2;PMS_P1;PMS_P2;Temp;Humidity;BMP_temperature;BMP_pressure;BME280_temperature;BME280_humidity;BME280_pressure;Samples;Min_cycle;Max_cycle;Signal;HPM_P1;HPM_P2
2023/06/04 00:02:20;;;;;;;3.30;2.40;;;;;;;10.22;57.88;98936.98;104807;1262;96558;-64
2023/06/04 00:04:47;;;;;;;3.60;2.60;;;;;;;10.21;58.14;98936.46;104904;1261;96561;-64
2023/06/04 00:07:15;;;;;;;7.40;2.90;;;;;;;10.18;58.37;98933.10;104991;1260;98232;-64
2023/06/04 00:09:43;;;;;;;4.20;2.50;;;;;;;10.15;58.41;98932.41;104765;1262;96565;-78
2023/06/04 00:12:10;;;;;;;6.90;3.20;;;;;;;10.11;58.66;98930.67;104873;1261;98190;-65
2023/06/04 00:14:38;;;;;;;3.80;2.40;;;;;;;10.09;58.88;98925.20;104692;1260;97834;-62
2023/06/04 00:17:05;;;;;;;5.20;2.40;;;;;;;10.10;58.72;98931.53;104752;1258;96633;-62
2023/06/04 00:19:33;;;;;;;9.70;2.50;;;;;;;10.10;58.75;98929.29;104907;1261;96602;-64
2023/06/04 00:22:00;;;;;;;5.60;2.80;;;;;;;10.06;58.94;98922.57;104906;1261;110846;-65
2023/06/04 00:24:28;;;;;;;6.40;2.80;;;;;;;10.04;58.91;98923.15;104761;1261;96674;-63
2023/06/04 00:26:55;;;;;;;5.80;2.90;;;;;;;10.03;58.95;98921.09;104835;1257;97740;-64
2023/06/04 00:29:22;;;;;;;4.50;2.30;;;;;;;10.00;58.90;98916.98;104886;1260;96555;-67
2023/06/04 00:31:49;;;;;;;4.70;1.80;;;;;;;9.98;58.95;98915.38;104971;1261;97461;-64
2023/06/04 00:34:18;;;;;;;5.00;2.60;;;;;;;9.95;59.20;98919.70;104870;1261;96520;-66
2023/06/04 00:36:45;;;;;;;6.20;2.70;;;;;;;9.90;59.33;98916.40;104983;1262;96797;-64
2023/06/04 00:39:13;;;;;;;5.60;2.80;;;;;;;9.86;59.58;98918.08;104884;1261;96573;-67
2023/06/04 00:41:40;;;;;;;5.30;2.90;;;;;;;9.84;59.44;98919.30;104896;1260;97861;-64
2023/06/04 00:44:07;;;;;;;4.40;2.70;;;;;;;9.83;59.62;98916.48;104865;1260;96500;-63
2023/06/04 00:46:35;;;;;;;6.80;3.00;;;;;;;9.80;60.13;98913.58;104764;1262;97373;-67
2023/06/04 00:49:04;;;;;;;5.80;3.00;;;;;;;9.76;60.09;98913.37;104671;1261;99181;-69
2023/06/04 00:51:32;;;;;;;5.50;2.80;;;;;;;9.72;60.39;98911.53;104971;1262;107522;-67
2023/06/04 00:54:08;;;;;;;5.20;2.50;;;;;;;9.70;60.36;98911.06;104835;1262;96552;-75
2023/06/04 00:56:37;;;;;;;5.60;2.50;;;;;;;9.66;60.80;98910.27;104816;1261;96526;-69
2023/06/04 00:59:11;;;;;;;4.50;2.50;;;;;;;9.63;60.78;98905.56;104909;1271;110529;-77
2023/06/04 01:01:40;;;;;;;6.10;2.30;;;;;;;9.59;61.10;98910.06;104951;1262;98124;-63
2023/06/04 01:04:17;;;;;;;2.80;1.80;;;;;;;9.58;60.93;98905.45;104949;1262;108513;-64
2023/06/04 01:06:47;;;;;;;3.70;2.00;;;;;;;9.57;61.16;98907.33;104971;1263;97871;-64
2023/06/04 01:09:15;;;;;;;3.90;2.10;;;;;;;9.53;61.52;98903.54;105024;1262;96626;-63
2023/06/04 01:11:42;;;;;;;4.50;2.30;;;;;;;9.50;61.67;98908.46;104918;1263;110566;-76
2023/06/04 01:14:10;;;;;;;6.70;2.40;;;;;;;9.49;61.87;98905.75;105002;1262;96564;-75
2023/06/04 01:17:01;;;;;;;5.60;2.30;;;;;;;9.47;61.84;98905.29;104759;1262;96578;-74
2023/06/04 01:20:04;;;;;;;4.70;2.30;;;;;;;9.44;62.50;98902.83;104770;1261;96689;-63
2023/06/04 01:22:59;;;;;;;5.80;2.30;;;;;;;9.40;62.63;98905.41;104974;1260;97366;-65
2023/06/04 01:25:41;;;;;;;4.50;2.50;;;;;;;9.39;62.61;98903.67;104760;1262;110534;-69
2023/06/04 01:28:11;;;;;;;3.80;2.20;;;;;;;9.38;62.81;98905.89;104908;1262;98178;-75
2023/06/04 01:30:45;;;;;;;7.00;2.10;;;;;;;9.36;62.79;98903.84;104643;1262;108663;-65
2023/06/04 01:33:14;;;;;;;3.70;2.00;;;;;;;9.33;63.05;98902.65;104638;1262;97461;-64
2023/06/04 01:35:42;;;;;;;3.30;1.80;;;;;;;9.32;63.29;98901.56;104944;1262;96548;-65
2023/06/04 01:38:09;;;;;;;5.30;2.30;;;;;;;9.30;63.16;98898.80;104928;1262;109897;-74
2023/06/04 01:40:37;;;;;;;7.20;3.10;;;;;;;9.28;63.28;98900.31;104935;1261;99234;-64
2023/06/04 01:43:04;;;;;;;6.00;1.90;;;;;;;9.25;63.63;98901.23;104913;1268;96572;-64
2023/06/04 01:45:31;;;;;;;2.90;1.90;;;;;;;9.21;63.68;98901.73;104963;1271;96703;-65
2023/06/04 01:48:02;;;;;;;5.80;2.60;;;;;;;9.18;63.88;98905.23;104840;1260;96546;-64
2023/06/04 01:50:30;;;;;;;4.30;2.40;;;;;;;9.16;63.81;98909.14;104920;1262;112003;-64
2023/06/04 01:52:58;;;;;;;3.80;2.10;;;;;;;9.14;63.97;98903.48;104780;1261;98333;-70
2023/06/04 01:55:25;;;;;;;5.20;2.40;;;;;;;9.10;64.24;98904.35;104940;1260;108437;-72
2023/06/04 01:57:53;;;;;;;3.50;2.00;;;;;;;9.09;64.41;98901.21;104869;1269;97462;-79
2023/06/04 02:00:20;;;;;;;4.50;2.30;;;;;;;9.05;64.11;98899.91;104809;1263;96550;-65
2023/06/04 02:02:50;;;;;;;5.10;2.40;;;;;;;9.03;64.59;98899.77;104808;1262;96610;-67
2023/06/04 02:05:17;;;;;;;7.10;2.60;;;;;;;8.98;64.58;98897.34;104880;1262;98840;-64
2023/06/04 02:07:47;;;;;;;4.40;2.70;;;;;;;8.95;64.92;98897.98;104945;1262;97989;-67
2023/06/04 02:10:17;;;;;;;5.40;3.00;;;;;;;8.90;65.10;98900.06;104889;1273;96597;-64
2023/06/04 02:13:00;;;;;;;3.40;1.60;;;;;;;8.88;65.08;98902.94;104730;1262;97750;-64
2023/06/04 02:15:27;;;;;;;6.10;2.00;;;;;;;8.81;65.64;98902.87;104917;1261;110904;-76
2023/06/04 02:17:59;;;;;;;5.50;2.80;;;;;;;8.76;66.12;98903.50;104657;1266;98177;-77
2023/06/04 02:20:27;;;;;;;3.30;2.00;;;;;;;8.71;66.06;98904.84;104874;1263;108121;-78
2023/06/04 02:22:57;;;;;;;3.20;2.20;;;;;;;8.67;66.60;98907.29;104931;1263;96550;-71
2023/06/04 02:25:24;;;;;;;3.50;1.70;;;;;;;8.64;66.47;98901.98;104884;1262;96642;-72
2023/06/04 02:27:51;;;;;;;5.60;2.50;;;;;;;8.60;67.24;98902.97;104723;1271;96536;-64
2023/06/04 02:30:18;;;;;;;3.40;2.10;;;;;;;8.57;67.20;98901.98;104647;1263;96565;-65
2023/06/04 02:32:45;;;;;;;5.10;2.50;;;;;;;8.55;66.95;98902.86;104717;1273;96568;-77
2023/06/04 02:35:18;;;;;;;4.00;2.50;;;;;;;8.55;67.53;98904.18;104924;1270;96584;-72
2023/06/04 02:37:45;;;;;;;5.20;2.60;;;;;;;8.56;66.98;98905.54;104851;1273;96566;-65
2023/06/04 02:40:12;;;;;;;7.00;2.60;;;;;;;8.56;67.32;98904.92;104867;1263;97877;-65
2023/06/04 02:42:39;;;;;;;5.30;2.90;;;;;;;8.54;67.09;98899.16;104904;1261;96577;-81
2023/06/04 02:45:07;;;;;;;4.90;2.40;;;;;;;8.55;67.38;98900.84;104836;1260;96581;-65
2023/06/04 02:47:34;;;;;;;5.40;2.20;;;;;;;8.55;67.83;98898.06;104962;1259;97182;-64
2023/06/04 02:50:03;;;;;;;5.40;2.50;;;;;;;8.52;67.85;98897.41;104903;1264;96548;-76
2023/06/04 02:52:30;;;;;;;9.00;2.70;;;;;;;8.49;68.54;98895.66;104920;1263;110735;-65
2023/06/04 02:54:57;;;;;;;4.50;2.70;;;;;;;8.50;68.28;98898.81;104908;1271;96629;-68
2023/06/04 02:57:24;;;;;;;7.90;2.90;;;;;;;8.48;68.71;98899.39;104722;1262;97186;-67
2023/06/04 02:59:51;;;;;;;3.70;2.30;;;;;;;8.45;68.94;98904.34;104750;1267;97894;-65
2023/06/04 03:02:19;;;;;;;4.50;2.40;;;;;;;8.42;69.09;98907.16;104665;1262;438702;-65
2023/06/04 03:04:47;;;;;;;4.70;2.80;;;;;;;8.44;68.58;98909.69;104880;1260;96549;-72
2023/06/04 03:07:15;;;;;;;7.00;3.30;;;;;;;8.45;68.89;98910.52;104896;1263;98871;-69
2023/06/04 03:09:42;;;;;;;6.20;3.10;;;;;;;8.47;68.85;98907.27;104876;1268;96584;-70
2023/06/04 03:12:09;;;;;;;6.70;3.20;;;;;;;8.49;69.32;98909.36;104933;1273;96606;-64
2023/06/04 03:14:36;;;;;;;4.50;2.60;;;;;;;8.50;69.20;98911.98;104843;1262;96559;-79
2023/06/04 03:17:10;;;;;;;6.80;3.10;;;;;;;8.52;68.99;98914.40;104759;1263;97475;-65
2023/06/04 03:19:38;;;;;;;6.50;2.90;;;;;;;8.55;69.46;98912.15;104812;1263;99202;-77
2023/06/04 03:22:07;;;;;;;6.20;2.50;;;;;;;8.58;69.58;98912.83;104797;1262;108136;-65
2023/06/04 03:24:36;;;;;;;5.70;2.60;;;;;;;8.61;69.50;98913.65;104947;1270;96514;-66
2023/06/04 03:27:05;;;;;;;5.20;2.10;;;;;;;8.69;69.20;98917.09;104879;1262;97370;-80
2023/06/04 03:29:32;;;;;;;5.30;2.80;;;;;;;8.73;69.48;98915.35;104905;1263;110846;-78
2023/06/04 03:32:01;;;;;;;6.30;3.10;;;;;;;8.78;69.46;98916.33;104956;1273;97902;-66
2023/06/04 03:34:31;;;;;;;4.00;1.70;;;;;;;8.84;69.44;98916.90;104888;1275;107589;-64
2023/06/04 03:37:01;;;;;;;6.20;2.50;;;;;;;8.90;69.29;98917.69;104644;1273;97442;-65
2023/06/04 03:39:28;;;;;;;3.70;2.10;;;;;;;8.98;68.67;98914.50;104765;1262;96565;-74
2023/06/04 03:41:55;;;;;;;7.50;2.50;;;;;;;9.05;68.56;98913.65;104670;1273;96554;-81
2023/06/04 03:44:22;;;;;;;7.00;3.00;;;;;;;9.11;68.73;98912.83;104760;1274;96544;-78
2023/06/04 03:46:50;;;;;;;5.60;2.30;;;;;;;9.20;68.46;98910.66;104869;1264;96539;-80
2023/06/04 03:49:19;;;;;;;5.90;2.80;;;;;;;9.27;68.56;98915.73;104937;1262;97909;-78
2023/06/04 03:51:46;;;;;;;6.50;3.00;;;;;;;9.33;68.36;98912.85;104975;1271;96558;-74
2023/06/04 03:54:16;;;;;;;5.80;3.00;;;;;;;9.41;68.24;98915.89;104886;1262;97452;-77
2023/06/04 03:56:46;;;;;;;5.60;2.70;;;;;;;9.50;67.90;98919.20;104815;1262;98702;-75
2023/06/04 03:59:23;;;;;;;5.30;2.80;;;;;;;9.63;67.79;98920.02;104939;1257;107870;-73
2023/06/04 04:01:59;;;;;;;6.40;2.40;;;;;;;9.72;67.30;98923.52;104899;1262;97883;-77
2023/06/04 04:04:34;;;;;;;4.60;2.40;;;;;;;9.79;67.02;98923.61;104932;1260;96556;-77
2023/06/04 04:07:08;;;;;;;6.20;2.90;;;;;;;9.84;66.75;98923.68;104897;1273;110882;-77
2023/06/04 04:09:38;;;;;;;5.20;2.80;;;;;;;9.93;66.88;98927.67;104943;1261;98088;-78
2023/06/04 04:12:10;;;;;;;;;;;;;;;10.00;66.63;98926.45;104807;1262;108242;-78
2023/06/04 04:14:47;;;;;;;4.90;2.60;;;;;;;10.04;66.39;98927.98;104790;1264;96606;-77
2023/06/04 04:17:18;;;;;;;4.10;2.60;;;;;;;10.14;66.33;98931.61;104807;1264;96507;-78
2023/06/04 04:19:47;;;;;;;4.50;2.30;;;;;;;10.23;66.09;98932.52;104889;1261;111009;-78
2023/06/04 04:22:17;;;;;;;4.60;2.50;;;;;;;10.27;65.88;98928.41;104845;1270;96602;-78
2023/06/04 04:24:44;;;;;;;4.80;2.30;;;;;;;10.39;65.85;98933.69;105028;1271;108511;-73
2023/06/04 04:27:11;;;;;;;5.00;3.00;;;;;;;10.46;65.40;98936.24;104692;1264;96552;-74
2023/06/04 04:29:38;;;;;;;4.70;2.50;;;;;;;10.56;65.39;98938.09;104839;1262;96888;-77
2023/06/04 04:32:10;;;;;;;7.90;2.50;;;;;;;10.63;65.00;98938.39;105013;1271;97269;-79
2023/06/04 04:34:51;;;;;;;6.50;3.10;;;;;;;10.65;65.00;98940.30;104915;1271;98038;-71
2023/06/04 04:37:20;;;;;;;6.60;2.90;;;;;;;10.76;64.91;98941.54;104922;1271;107698;-72
2023/06/04 04:39:51;;;;;;;6.60;2.70;;;;;;;10.88;64.78;98941.23;104897;1263;96496;-71
2023/06/04 04:42:19;;;;;;;;;;;;;;;10.98;64.53;98940.09;104921;1261;97753;-72
2023/06/04 04:44:48;;;;;;;4.30;2.40;;;;;;;11.04;64.09;98942.96;104925;1264;109509;-70
2023/06/04 04:47:16;;;;;;;7.60;2.80;;;;;;;11.07;63.95;98945.36;104911;1260;98749;-71
2023/06/04 04:49:43;;;;;;;7.90;2.90;;;;;;;11.14;63.91;98943.10;104920;1261;108188;-71
2023/06/04 04:52:10;;;;;;;7.50;2.80;;;;;;;11.25;64.04;98939.95;104801;1268;96573;-71
2023/06/04 04:54:37;;;;;;;5.40;2.60;;;;;;;11.38;63.41;98945.89;104853;1264;96656;-70
2023/06/04 04:57:05;;;;;;;5.80;2.40;;;;;;;11.44;62.80;98944.55;104683;1272;96564;-67
2023/06/04 04:59:40;;;;;;;6.20;3.00;;;;;;;11.42;62.48;98945.68;104830;1262;98770;-71
2023/06/04 05:02:07;;;;;;;4.30;2.60;;;;;;;11.45;63.12;98947.80;104893;1263;97834;-69
2023/06/04 05:04:34;;;;;;;5.00;2.90;;;;;;;11.54;62.32;98948.98;104559;1263;96631;-72
2023/06/04 05:07:01;;;;;;;5.40;2.70;;;;;;;11.58;62.07;98946.73;104910;1262;96553;-74
2023/06/04 05:09:28;;;;;;;4.50;2.40;;;;;;;11.62;62.19;98949.46;104698;1271;96639;-74
2023/06/04 05:11:55;;;;;;;6.90;2.50;;;;;;;11.67;61.89;98946.55;104874;1262;96637;-70
2023/06/04 05:14:22;;;;;;;4.70;3.10;;;;;;;11.73;62.01;98947.39;104917;1270;96712;-71
2023/06/04 05:16:49;;;;;;;4.40;2.70;;;;;;;11.81;61.92;98953.38;104842;1270;97893;-71
2023/06/04 05:19:17;;;;;;;4.10;2.40;;;;;;;11.80;61.60;98955.54;104909;1261;96565;-70
2023/06/04 05:21:44;;;;;;;6.30;2.70;;;;;;;11.83;61.96;98953.94;104737;1261;96537;-70
2023/06/04 05:24:11;;;;;;;5.80;2.80;;;;;;;11.97;61.99;98958.13;104597;1271;96579;-72
2023/06/04 05:26:39;;;;;;;7.30;2.80;;;;;;;12.06;61.87;98957.31;105012;1262;97472;-71
2023/06/04 05:29:07;;;;;;;5.00;2.60;;;;;;;12.19;61.74;98958.95;104819;1271;96642;-70
2023/06/04 05:31:34;;;;;;;7.00;3.00;;;;;;;12.28;61.61;98958.27;104744;1270;111638;-70
2023/06/04 05:34:04;;;;;;;5.50;2.90;;;;;;;12.44;61.35;98958.59;104990;1261;96552;-71
2023/06/04 05:36:31;;;;;;;6.30;3.00;;;;;;;12.54;60.94;98949.88;104960;1272;107722;-69
2023/06/04 05:38:59;;;;;;;3.40;2.20;;;;;;;12.66;61.13;98954.05;104867;1271;96566;-71
2023/06/04 05:41:27;;;;;;;4.70;2.40;;;;;;;12.79;60.75;98949.77;104901;1258;97778;-74
2023/06/04 05:43:54;;;;;;;5.30;2.60;;;;;;;12.98;60.24;98958.59;104898;1273;111253;-69
2023/06/04 05:46:22;;;;;;;4.60;2.50;;;;;;;13.01;59.35;98960.56;104901;1272;96662;-71
2023/06/04 05:48:50;;;;;;;6.20;2.80;;;;;;;13.13;59.29;98965.58;104946;1261;97380;-72
2023/06/04 05:51:17;;;;;;;4.40;2.60;;;;;;;13.23;58.70;98966.30;104913;1273;97467;-71
2023/06/04 05:53:45;;;;;;;4.40;2.60;;;;;;;13.26;58.75;98964.29;104790;1262;97044;-71
2023/06/04 05:56:13;;;;;;;4.10;2.70;;;;;;;13.37;59.05;98965.23;104842;1280;96484;-69
2023/06/04 05:58:41;;;;;;;3.90;2.50;;;;;;;13.62;57.87;98971.41;104974;1262;99693;-67
2023/06/04 06:01:09;;;;;;;3.50;2.20;;;;;;;13.78;57.70;98973.87;104946;1271;107621;-67
2023/06/04 06:03:36;;;;;;;7.50;2.90;;;;;;;13.84;57.32;98977.36;104886;1280;97455;-61
2023/06/04 06:06:05;;;;;;;6.20;2.60;;;;;;;13.91;57.21;98973.15;104926;1262;96488;-64
2023/06/04 06:08:32;;;;;;;3.70;2.40;;;;;;;13.97;56.65;98974.73;104872;1271;110485;-62
2023/06/04 06:11:00;;;;;;;5.20;2.80;;;;;;;14.05;56.84;98980.02;104909;1273;96524;-62
2023/06/04 06:13:27;;;;;;;7.80;2.50;;;;;;;14.12;56.09;98978.35;104928;1271;97756;-62
2023/06/04 06:15:55;;;;;;;5.10;2.60;;;;;;;14.28;56.94;98981.45;104886;1271;96600;-62
2023/06/04 06:18:23;;;;;;;3.80;2.40;;;;;;;14.50;56.50;98979.97;104966;1273;96642;-62
2023/06/04 06:20:50;;;;;;;4.80;2.50;;;;;;;14.80;56.50;98984.94;104967;1273;96563;-65
2023/06/04 06:23:19;;;;;;;3.40;2.70;;;;;;;15.05;55.18;98984.77;105235;1273;97454;-64
2023/06/04 06:25:46;;;;;;;4.60;2.30;;;;;;;15.08;54.09;98987.03;104740;1263;108299;-66
2023/06/04 06:28:12;;;;;;;7.80;2.60;;;;;;;15.13;54.62;98987.39;104702;1271;97369;-69
2023/06/04 06:30:40;;;;;;;5.20;2.70;;;;;;;15.39;54.88;98988.58;104905;1268;96648;-63
2023/06/04 06:33:08;;;;;;;6.00;2.60;;;;;;;15.59;53.40;98993.45;104922;1271;96810;-65
2023/06/04 06:35:35;;;;;;;4.60;2.30;;;;;;;15.63;52.36;98996.27;104994;1271;97871;-62
2023/06/04 06:38:03;;;;;;;5.50;2.20;;;;;;;15.62;52.19;98993.15;104918;1264;96558;-63
2023/06/04 06:40:30;;;;;;;5.80;2.20;;;;;;;15.70;51.48;98994.24;104925;1271;96466;-64
2023/06/04 06:42:57;;;;;;;3.80;2.10;;;;;;;15.79;51.18;98996.23;104957;1257;97744;-65
2023/06/04 06:45:24;;;;;;;3.70;2.00;;;;;;;15.87;51.02;98995.83;104861;1266;96956;-71
2023/06/04 06:47:51;;;;;;;4.40;2.00;;;;;;;15.88;50.88;98995.08;104953;1271;96524;-66
2023/06/04 06:50:18;;;;;;;4.90;2.50;;;;;;;16.05;50.69;98997.12;104835;1273;96561;-68
2023/06/04 06:52:46;;;;;;;3.90;2.00;;;;;;;16.23;50.57;98994.41;104915;1261;96580;-66
2023/06/04 06:55:13;;;;;;;4.90;2.40;;;;;;;16.30;50.77;98996.45;104921;1263;97157;-68
2023/06/04 06:57:40;;;;;;;5.30;2.30;;;;;;;16.46;50.27;98993.33;104975;1271;96558;-67
2023/06/04 07:00:09;;;;;;;5.30;2.50;;;;;;;16.68;50.65;98995.13;104900;1263;96559;-64
2023/06/04 07:02:35;;;;;;;4.30;2.30;;;;;;;16.94;49.25;98995.67;104977;1261;96553;-64
2023/06/04 07:05:03;;;;;;;3.30;1.90;;;;;;;16.97;48.46;98992.36;104893;1271;96588;-65
2023/06/04 07:07:31;;;;;;;3.50;1.80;;;;;;;17.06;47.24;98994.88;104967;1261;96619;-66
2023/06/04 07:09:58;;;;;;;4.30;2.20;;;;;;;17.03;47.52;98991.52;104933;1264;97741;-65
2023/06/04 07:12:25;;;;;;;3.00;2.00;;;;;;;17.26;47.66;98991.66;104877;1271;96537;-66
2023/06/04 07:14:52;;;;;;;5.70;2.30;;;;;;;17.54;47.72;98990.79;104960;1259;96549;-69
2023/06/04 07:17:24;;;;;;;4.90;1.80;;;;;;;17.72;46.66;98992.80;104952;1271;96559;-69
2023/06/04 07:19:54;;;;;;;3.20;1.70;;;;;;;17.93;46.77;98987.88;104855;1261;97547;-64
2023/06/04 07:22:21;;;;;;;3.30;1.90;;;;;;;17.88;44.93;98992.02;104925;1271;96555;-66
2023/06/04 07:24:48;;;;;;;3.00;1.80;;;;;;;17.82;44.84;98989.35;104979;1263;97232;-64
2023/06/04 07:27:15;;;;;;;2.60;2.10;;;;;;;17.95;45.39;98987.06;104899;1271;96560;-66
2023/06/04 07:29:46;;;;;;;3.10;1.90;;;;;;;18.21;45.03;98991.63;104683;1268;96546;-65
2023/06/04 07:32:14;;;;;;;3.30;1.70;;;;;;;18.37;43.03;98992.82;104860;1262;96571;-65
2023/06/04 07:34:41;;;;;;;3.00;1.80;;;;;;;18.42;42.54;98991.44;104661;1269;96547;-64
2023/06/04 07:37:09;;;;;;;5.20;1.90;;;;;;;18.60;42.38;98989.41;104831;1281;97269;-65
2023/06/04 07:39:36;;;;;;;5.60;1.80;;;;;;;18.73;42.14;98990.41;104923;1261;108649;-64
2023/06/04 07:42:07;;;;;;;4.00;1.70;;;;;;;19.04;42.03;98987.05;104742;1261;96568;-64
2023/06/04 07:44:35;;;;;;;3.80;2.00;;;;;;;19.36;42.27;98988.88;104715;1260;96667;-64
2023/06/04 07:47:05;;;;;;;2.70;1.80;;;;;;;19.61;41.17;98989.27;104825;1260;110122;-66
2023/06/04 07:49:37;;;;;;;4.00;1.70;;;;;;;19.69;40.69;98986.73;104696;1273;99158;-68
2023/06/04 07:52:27;;;;;;;4.80;1.90;;;;;;;20.11;40.12;98991.89;104676;1273;108250;-67
2023/06/04 07:54:54;;;;;;;4.60;1.90;;;;;;;20.33;38.92;98990.51;104841;1257;96538;-64
2023/06/04 07:57:21;;;;;;;4.30;2.00;;;;;;;20.44;38.84;98993.87;104954;1261;96657;-64
2023/06/04 07:59:49;;;;;;;4.20;1.90;;;;;;;20.67;39.19;98989.69;104891;1261;96540;-65
2023/06/04 08:02:17;;;;;;;4.40;1.70;;;;;;;20.94;37.79;98997.98;104950;1270;98040;-68
2023/06/04 08:04:48;;;;;;;6.00;1.70;;;;;;;21.05;38.19;98997.99;104951;1262;108731;-69
2023/06/04 08:07:15;;;;;;;2.50;1.10;;;;;;;21.24;37.21;98992.59;104920;1271;96634;-73
2023/06/04 08:09:44;;;;;;;5.10;1.50;;;;;;;21.12;36.10;98994.10;104896;1262;96567;-70
2023/06/04 08:12:11;;;;;;;3.00;1.40;;;;;;;21.18;36.23;98991.48;104949;1271;110435;-72
2023/06/04 08:14:38;;;;;;;3.00;1.40;;;;;;;21.47;36.14;98993.20;104951;1272;96553;-72
2023/06/04 08:17:05;;;;;;;3.10;1.40;;;;;;;21.58;36.20;98995.14;104939;1269;97753;-72
2023/06/04 08:19:32;;;;;;;4.00;1.90;;;;;;;21.74;36.50;98995.34;105166;1270;96556;-70
2023/06/04 08:22:00;;;;;;;3.30;1.40;;;;;;;22.06;35.81;98996.08;104905;1263;98156;-73
2023/06/04 08:24:27;;;;;;;2.50;1.60;;;;;;;22.17;35.50;98993.14;104950;1270;97902;-74
2023/06/04 08:26:54;;;;;;;4.10;1.40;;;;;;;22.33;35.43;98997.27;104942;1258;98002;-73
2023/06/04 08:29:21;;;;;;;2.40;1.20;;;;;;;22.52;33.67;98992.72;104961;1273;98297;-72
2023/06/04 08:31:48;;;;;;;2.40;1.40;;;;;;;22.52;33.88;98995.19;104858;1271;98801;-72
2023/06/04 08:34:15;;;;;;;2.70;1.30;;;;;;;22.65;32.93;98998.52;104897;1264;98792;-74
2023/06/04 08:36:42;;;;;;;7.60;1.90;;;;;;;22.53;32.47;98999.58;104952;1271;97915;-70
2023/06/04 08:39:10;;;;;;;3.00;1.60;;;;;;;22.64;32.75;98996.80;105070;1267;97901;-73
2023/06/04 08:41:44;;;;;;;2.60;1.30;;;;;;;22.54;32.39;98999.14;105078;1257;97916;-73
2023/06/04 08:44:12;;;;;;;2.10;1.20;;;;;;;22.33;32.85;98997.83;105081;1267;98686;-71
2023/06/04 08:46:40;;;;;;;2.10;1.00;;;;;;;22.43;32.01;99002.77;105022;1258;111208;-71
2023/06/04 08:49:08;;;;;;;3.20;1.30;;;;;;;22.62;32.49;99004.61;105055;1258;98252;-67
2023/06/04 08:51:37;;;;;;;5.50;1.20;;;;;;;22.97;32.15;99000.31;105042;1257;107382;-71
2023/06/04 08:54:05;;;;;;;2.00;1.20;;;;;;;23.15;32.56;99004.16;105089;1257;97886;-72
2023/06/04 08:56:34;;;;;;;4.60;1.30;;;;;;;23.05;30.87;99006.66;105081;1257;98067;-72
2023/06/04 08:59:03;;;;;;;1.60;1.20;;;;;;;22.98;31.47;99004.70;105030;1260;110953;-72
2023/06/04 09:01:32;;;;;;;3.90;1.50;;;;;;;23.30;32.69;99003.36;105037;1270;99105;-73
2023/06/04 09:04:03;;;;;;;1.70;1.00;;;;;;;23.78;31.64;99004.27;104992;1257;107549;-73
2023/06/04 09:06:33;;;;;;;2.40;1.20;;;;;;;23.74;30.45;99002.42;104884;1258;98575;-73
2023/06/04 09:09:07;;;;;;;3.80;1.40;;;;;;;23.82;30.80;99003.95;105030;1255;98714;-78
2023/06/04 09:11:53;;;;;;;3.10;1.30;;;;;;;24.29;30.70;99001.75;104956;1269;111926;-73
2023/06/04 09:14:21;;;;;;;3.10;1.50;;;;;;;24.23;29.61;98999.26;105052;1255;98698;-73
2023/06/04 09:16:54;;;;;;;2.30;1.20;;;;;;;24.47;30.82;98997.91;105066;1257;107736;-73
2023/06/04 09:19:22;;;;;;;2.20;1.40;;;;;;;24.73;29.65;99001.88;105042;1259;97894;-73
2023/06/04 09:21:54;;;;;;;2.70;1.30;;;;;;;24.21;29.40;98996.77;105218;1269;97907;-70
2023/06/04 09:24:39;;;;;;;2.60;1.30;;;;;;;23.80;29.63;98997.23;105044;1277;111794;-73
2023/06/04 09:27:12;;;;;;;4.10;1.40;;;;;;;23.89;30.08;98996.63;104988;1268;99123;-72
2023/06/04 09:29:51;;;;;;;1.70;1.10;;;;;;;24.38;29.73;98994.46;105009;1258;108125;-72
2023/06/04 09:32:29;;;;;;;3.10;1.50;;;;;;;24.67;30.19;98992.77;105009;1260;97912;-72
2023/06/04 09:35:18;;;;;;;2.10;1.20;;;;;;;24.92;28.83;98991.78;105026;1259;98012;-73
2023/06/04 09:37:56;;;;;;;2.80;1.20;;;;;;;24.86;29.22;98991.54;104953;1260;111985;-64
2023/06/04 09:40:24;;;;;;;2.80;1.30;;;;;;;24.96;28.60;98992.27;104930;1255;99197;-64
2023/06/04 09:42:54;;;;;;;3.30;1.40;;;;;;;25.06;28.56;98987.73;105012;1257;108913;-65
2023/06/04 09:45:35;;;;;;;5.80;3.60;;;;;;;25.41;28.59;98985.62;105064;1258;97980;-64
2023/06/04 09:48:04;;;;;;;2.80;1.40;;;;;;;25.83;28.53;98982.70;105032;1270;97997;-63
2023/06/04 09:50:38;;;;;;;3.50;1.50;;;;;;;26.12;27.79;98986.69;105004;1257;111955;-68
2023/06/04 09:53:25;;;;;;;2.00;1.20;;;;;;;26.04;27.32;98988.91;105036;1255;99128;-65
2023/06/04 09:56:00;;;;;;;3.70;1.40;;;;;;;26.14;27.63;98986.67;105006;1256;108677;-64
2023/06/04 09:58:29;;;;;;;2.10;1.20;;;;;;;26.56;27.11;98989.64;105012;1257;98841;-66
2023/06/04 10:00:59;;;;;;;10.50;3.60;;;;;;;26.82;27.44;98981.84;105065;1254;99046;-65
2023/06/04 10:03:33;;;;;;;;;;;;;;;27.19;26.73;98985.02;104988;1254;112120;-65
2023/06/04 10:06:05;;;;;;;2.60;1.20;;;;;;;27.19;26.17;98981.08;104972;1269;99641;-65
2023/06/04 10:08:36;;;;;;;3.00;1.30;;;;;;;27.22;26.62;98979.51;105037;1259;107610;-65
2023/06/04 10:11:05;;;;;;;2.20;1.50;;;;;;;27.38;25.90;98981.25;104933;1270;97870;-65
2023/06/04 10:13:50;;;;;;;3.10;1.50;;;;;;;27.39;25.88;98983.09;104990;1258;97957;-66
2023/06/04 10:16:20;;;;;;;2.00;1.20;;;;;;;27.47;26.58;98980.82;104813;1270;112289;-66
2023/06/04 10:19:00;;;;;;;2.50;1.30;;;;;;;27.72;25.78;98984.70;104960;1269;98744;-65
2023/06/04 10:21:34;;;;;;;2.10;1.50;;;;;;;27.82;25.80;98980.60;105043;1269;108578;-67
2023/06/04 10:24:02;;;;;;;1.90;1.30;;;;;;;28.10;25.77;98975.11;104911;1265;99234;-66
2023/06/04 10:26:30;;;;;;;2.50;1.20;;;;;;;28.37;24.78;98977.45;105014;1257;98021;-67
2023/06/04 10:28:58;;;;;;;1.90;1.10;;;;;;;27.99;25.00;98978.04;104826;1268;112014;-66
2023/06/04 10:31:26;;;;;;;2.20;1.40;;;;;;;27.99;24.79;98974.89;105040;1260;97921;-68
2023/06/04 10:33:55;;;;;;;4.10;1.60;;;;;;;28.19;24.82;98973.77;104949;1257;107604;-70
2023/06/04 10:36:23;;;;;;;3.10;1.20;;;;;;;28.55;24.71;98975.05;105074;1258;98487;-67
2023/06/04 10:38:53;;;;;;;3.60;1.40;;;;;;;28.87;24.98;98974.02;104992;1257;97893;-69
2023/06/04 10:41:23;;;;;;;2.10;1.40;;;;;;;29.21;24.30;98976.98;105039;1254;111654;-67
2023/06/04 10:44:00;;;;;;;2.00;1.10;;;;;;;29.48;24.34;98977.40;105106;1254;98638;-66
2023/06/04 10:46:43;;;;;;;2.30;1.40;;;;;;;29.67;23.16;98975.06;105007;1258;107612;-65
2023/06/04 10:49:11;;;;;;;4.40;1.80;;;;;;;29.62;22.10;98975.28;105025;1259;97998;-68
2023/06/04 10:51:39;;;;;;;2.50;1.30;;;;;;;29.66;22.23;98974.45;105061;1258;98074;-65
2023/06/04 10:54:07;;;;;;;3.20;1.40;;;;;;;29.56;21.95;98976.35;104999;1270;112778;-65
2023/06/04 10:56:35;;;;;;;4.70;2.10;;;;;;;29.68;21.78;98976.17;105012;1257;99130;-66
2023/06/04 10:59:17;;;;;;;2.30;1.60;;;;;;;29.74;22.14;98977.83;105041;1257;107566;-67
2023/06/04 11:01:45;;;;;;;2.60;1.20;;;;;;;29.95;23.56;98976.73;104976;1258;99189;-66
2023/06/04 11:04:26;;;;;;;2.40;1.30;;;;;;;29.98;23.32;98969.95;105026;1259;97909;-73
2023/06/04 11:07:04;;;;;;;1.50;1.40;;;;;;;29.95;22.80;98970.64;105052;1258;111229;-70
2023/06/04 11:09:32;;;;;;;3.30;1.60;;;;;;;30.06;22.32;98975.08;105021;1268;99132;-65
2023/06/04 11:12:01;;;;;;;1.70;1.30;;;;;;;30.32;21.81;98970.20;105036;1267;108078;-69
2023/06/04 11:14:28;;;;;;;3.00;1.20;;;;;;;30.21;22.08;98973.38;105110;1255;97893;-67
2023/06/04 11:16:56;;;;;;;2.20;1.40;;;;;;;30.51;22.23;98968.41;105065;1267;97963;-67
2023/06/04 11:19:23;;;;;;;1.70;1.30;;;;;;;30.66;21.58;98969.80;105094;1257;97974;-70
2023/06/04 11:21:50;;;;;;;1.90;1.40;;;;;;;30.37;21.87;98965.88;104997;1267;99048;-66
2023/06/04 11:24:18;;;;;;;2.70;1.50;;;;;;;29.99;21.79;98963.29;105010;1260;98444;-68
2023/06/04 11:26:46;;;;;;;4.40;1.50;;;;;;;29.59;22.10;98965.89;105030;1267;97994;-66
2023/06/04 11:29:26;;;;;;;3.90;1.90;;;;;;;29.73;22.44;98965.11;105039;1253;99100;-65
2023/06/04 11:31:53;;;;;;;1.70;1.40;;;;;;;30.27;23.37;98961.84;105097;1257;99097;-67
2023/06/04 11:34:24;;;;;;;2.30;1.70;;;;;;;30.75;23.48;98966.91;105005;1263;97907;-66
2023/06/04 11:36:55;;;;;;;3.10;1.70;;;;;;;31.14;22.84;98962.48;105177;1267;107132;-68
2023/06/04 11:39:23;;;;;;;4.10;2.80;;;;;;;31.51;22.15;98959.79;105023;1258;97918;-66